sensor_id;sensor_type;location;lat;lon;timestamp;pressure;altitude;pressure_sealevel;temperature;humidity
75188;BME280;63762;51.334;22.108;2024-01-15T00:04:04;99748.70;;;1.28;78.18
75188;BME280;63762;51.334;22.108;2024-01-15T00:14:11;99742.41;;;1.15;78.72
75188;BME280;63762;51.334;22.108;2024-01-15T00:24:18;99712.37;;;1.30;77.76
75188;BME280;63762;51.334;22.108;2024-01-15T00:34:25;99708.06;;;1.13;79.18
75188;BME280;63762;51.334;22.108;2024-01-15T00:44:32;99693.43;;;1.22;79.35
75188;BME280;63762;51.334;22.108;2024-01-15T00:54:39;99681.20;;;1.19;79.59
75188;BME280;63762;51.334;22.108;2024-01-15T01:04:47;99671.98;;;1.26;78.94
75188;BME280;63762;51.334;22.108;2024-01-15T01:14:54;99668.26;;;1.15;79.70
75188;BME280;63762;51.334;22.108;2024-01-15T01:25:01;99643.45;;;1.16;79.28
75188;BME280;63762;51.334;22.108;2024-01-15T01:35:08;99636.26;;;1.18;78.58
75188;BME280;63762;51.334;22.108;2024-01-15T01:45:15;99620.76;;;1.12;79.05
75188;BME280;63762;51.334;22.108;2024-01-15T01:55:24;99600.04;;;1.18;78.46
75188;BME280;63762;51.334;22.108;2024-01-15T02:05:31;99594.20;;;1.27;77.52
75188;BME280;63762;51.334;22.108;2024-01-15T02:15:37;99588.32;;;1.22;77.18
75188;BME280;63762;51.334;22.108;2024-01-15T02:25:46;99572.51;;;1.21;77.34
75188;BME280;63762;51.334;22.108;2024-01-15T02:35:51;99560.40;;;1.17;77.24
75188;BME280;63762;51.334;22.108;2024-01-15T02:45:58;99549.81;;;1.17;77.97
75188;BME280;63762;51.334;22.108;2024-01-15T02:56:07;99543.86;;;1.13;77.28
75188;BME280;63762;51.334;22.108;2024-01-15T03:06:12;99534.29;;;1.11;76.91
75188;BME280;63762;51.334;22.108;2024-01-15T03:16:19;99529.95;;;1.24;76.33
75188;BME280;63762;51.334;22.108;2024-01-15T03:26:27;99502.88;;;1.05;77.01
75188;BME280;63762;51.334;22.108;2024-01-15T03:36:34;99504.51;;;1.07;76.54
75188;BME280;63762;51.334;22.108;2024-01-15T03:46:41;99485.48;;;1.01;76.47
75188;BME280;63762;51.334;22.108;2024-01-15T03:56:48;99474.06;;;1.00;76.01
75188;BME280;63762;51.334;22.108;2024-01-15T04:06:55;99457.30;;;1.00;75.57
75188;BME280;63762;51.334;22.108;2024-01-15T04:17:02;99447.77;;;0.97;75.67
75188;BME280;63762;51.334;22.108;2024-01-15T04:27:09;99444.71;;;1.03;75.19
75188;BME280;63762;51.334;22.108;2024-01-15T04:37:17;99432.25;;;1.05;75.03
75188;BME280;63762;51.334;22.108;2024-01-15T04:47:24;99422.80;;;1.01;75.55
75188;BME280;63762;51.334;22.108;2024-01-15T04:57:31;99411.08;;;0.91;77.01
75188;BME280;63762;51.334;22.108;2024-01-15T05:07:38;99395.47;;;0.87;78.08
75188;BME280;63762;51.334;22.108;2024-01-15T05:17:45;99389.97;;;0.76;78.39
75188;BME280;63762;51.334;22.108;2024-01-15T05:27:52;99379.20;;;0.79;78.17
75188;BME280;63762;51.334;22.108;2024-01-15T05:37:59;99369.29;;;0.82;77.46
75188;BME280;63762;51.334;22.108;2024-01-15T05:48:06;99367.09;;;0.89;77.26
75188;BME280;63762;51.334;22.108;2024-01-15T05:58:14;99353.48;;;0.95;77.13
75188;BME280;63762;51.334;22.108;2024-01-15T06:08:21;99336.29;;;0.88;77.34
75188;BME280;63762;51.334;22.108;2024-01-15T06:18:28;99350.54;;;0.99;77.29
75188;BME280;63762;51.334;22.108;2024-01-15T06:28:35;99339.69;;;0.90;78.66
75188;BME280;63762;51.334;22.108;2024-01-15T06:38:43;99329.48;;;0.84;78.67
75188;BME280;63762;51.334;22.108;2024-01-15T06:51:56;99318.52;;;0.90;76.35
75188;BME280;63762;51.334;22.108;2024-01-15T07:02:03;99325.31;;;0.94;75.40
75188;BME280;63762;51.334;22.108;2024-01-15T07:12:10;99344.80;;;0.93;75.07
75188;BME280;63762;51.334;22.108;2024-01-15T07:22:17;99353.48;;;1.09;74.44
75188;BME280;63762;51.334;22.108;2024-01-15T07:32:24;99346.84;;;1.16;75.50
75188;BME280;63762;51.334;22.108;2024-01-15T07:42:31;99358.41;;;0.87;81.07
75188;BME280;63762;51.334;22.108;2024-01-15T07:52:40;99353.38;;;0.54;83.47
75188;BME280;63762;51.334;22.108;2024-01-15T08:02:45;99367.84;;;0.63;83.93
75188;BME280;63762;51.334;22.108;2024-01-15T08:12:53;99356.24;;;0.65;83.25
75188;BME280;63762;51.334;22.108;2024-01-15T08:23:00;99347.45;;;0.93;81.89
75188;BME280;63762;51.334;22.108;2024-01-15T08:33:07;99338.51;;;1.22;80.46
75188;BME280;63762;51.334;22.108;2024-01-15T08:43:14;99338.07;;;1.42;79.26
75188;BME280;63762;51.334;22.108;2024-01-15T08:53:21;99348.32;;;1.60;78.69
75188;BME280;63762;51.334;22.108;2024-01-15T09:03:28;99338.71;;;1.72;77.92
75188;BME280;63762;51.334;22.108;2024-01-15T09:13:35;99352.63;;;1.75;77.23
75188;BME280;63762;51.334;22.108;2024-01-15T09:23:43;99352.83;;;1.72;76.18
75188;BME280;63762;51.334;22.108;2024-01-15T09:33:50;99357.86;;;1.63;76.57
75188;BME280;63762;51.334;22.108;2024-01-15T09:43:58;99344.94;;;1.58;76.92
75188;BME280;63762;51.334;22.108;2024-01-15T09:54:05;99345.73;;;1.46;77.89
75188;BME280;63762;51.334;22.108;2024-01-15T10:04:11;99346.16;;;1.53;76.74
75188;BME280;63762;51.334;22.108;2024-01-15T10:14:19;99340.05;;;1.38;76.74
75188;BME280;63762;51.334;22.108;2024-01-15T10:24:25;99323.23;;;1.39;75.35
75188;BME280;63762;51.334;22.108;2024-01-15T10:34:33;99321.98;;;1.45;74.73
75188;BME280;63762;51.334;22.108;2024-01-15T10:44:41;99349.06;;;1.36;76.11
75188;BME280;63762;51.334;22.108;2024-01-15T10:54:48;99337.30;;;1.40;74.38
75188;BME280;63762;51.334;22.108;2024-01-15T11:04:54;99348.62;;;1.56;72.84
75188;BME280;63762;51.334;22.108;2024-01-15T11:15:03;99344.41;;;1.66;72.19
75188;BME280;63762;51.334;22.108;2024-01-15T11:25:14;99312.88;;;1.88;71.71
75188;BME280;63762;51.334;22.108;2024-01-15T11:35:16;99305.64;;;1.77;70.88
75188;BME280;63762;51.334;22.108;2024-01-15T11:45:23;99307.27;;;1.80;68.19
75188;BME280;63762;51.334;22.108;2024-01-15T11:55:34;99309.82;;;1.94;66.92
75188;BME280;63762;51.334;22.108;2024-01-15T12:05:39;99290.75;;;1.89;66.38
75188;BME280;63762;51.334;22.108;2024-01-15T12:15:45;99299.73;;;1.86;65.56
75188;BME280;63762;51.334;22.108;2024-01-15T12:25:51;99292.03;;;1.96;64.76
75188;BME280;63762;51.334;22.108;2024-01-15T12:35:58;99295.54;;;2.09;64.30
75188;BME280;63762;51.334;22.108;2024-01-15T12:46:05;99286.93;;;1.93;63.84
75188;BME280;63762;51.334;22.108;2024-01-15T12:56:13;99293.71;;;1.97;64.31
75188;BME280;63762;51.334;22.108;2024-01-15T13:06:20;99297.33;;;1.96;65.12
75188;BME280;63762;51.334;22.108;2024-01-15T13:16:27;99299.23;;;2.06;65.20
75188;BME280;63762;51.334;22.108;2024-01-15T13:26:35;99283.86;;;1.99;66.10
75188;BME280;63762;51.334;22.108;2024-01-15T13:36:41;99302.22;;;2.02;64.99
75188;BME280;63762;51.334;22.108;2024-01-15T13:46:48;99300.74;;;2.10;64.45
75188;BME280;63762;51.334;22.108;2024-01-15T13:56:56;99309.07;;;1.92;64.58
75188;BME280;63762;51.334;22.108;2024-01-15T14:07:03;99307.05;;;1.83;64.22
75188;BME280;63762;51.334;22.108;2024-01-15T14:17:10;99328.88;;;1.74;64.21
75188;BME280;63762;51.334;22.108;2024-01-15T14:27:17;99311.90;;;1.76;63.79
75188;BME280;63762;51.334;22.108;2024-01-15T14:37:24;99329.47;;;1.65;63.87
75188;BME280;63762;51.334;22.108;2024-01-15T14:47:31;99334.98;;;1.62;65.13
75188;BME280;63762;51.334;22.108;2024-01-15T14:57:38;99326.06;;;1.63;66.38
75188;BME280;63762;51.334;22.108;2024-01-15T15:07:45;99332.67;;;1.43;66.75
75188;BME280;63762;51.334;22.108;2024-01-15T15:17:53;99334.13;;;1.35;67.28
75188;BME280;63762;51.334;22.108;2024-01-15T15:28:00;99343.09;;;1.32;67.57
75188;BME280;63762;51.334;22.108;2024-01-15T15:38:07;99344.92;;;1.18;67.97
75188;BME280;63762;51.334;22.108;2024-01-15T15:48:14;99356.67;;;1.14;68.22
75188;BME280;63762;51.334;22.108;2024-01-15T15:58:21;99354.02;;;1.14;68.02
75188;BME280;63762;51.334;22.108;2024-01-15T16:08:28;99371.06;;;1.10;68.13
75188;BME280;63762;51.334;22.108;2024-01-15T16:18:35;99354.79;;;1.16;68.43
75188;BME280;63762;51.334;22.108;2024-01-15T16:28:42;99350.45;;;1.15;68.50
75188;BME280;63762;51.334;22.108;2024-01-15T16:38:50;99360.95;;;1.02;69.08
75188;BME280;63762;51.334;22.108;2024-01-15T16:48:57;99356.85;;;1.11;68.29
75188;BME280;63762;51.334;22.108;2024-01-15T16:59:04;99365.41;;;1.02;68.26
75188;BME280;63762;51.334;22.108;2024-01-15T17:09:11;99356.32;;;1.06;67.73
75188;BME280;63762;51.334;22.108;2024-01-15T17:19:18;99342.70;;;0.98;67.17
75188;BME280;63762;51.334;22.108;2024-01-15T17:29:25;99363.31;;;0.79;67.92
75188;BME280;63762;51.334;22.108;2024-01-15T17:39:32;99374.18;;;0.74;68.38
75188;BME280;63762;51.334;22.108;2024-01-15T17:49:40;99394.05;;;0.81;68.41
75188;BME280;63762;51.334;22.108;2024-01-15T17:59:47;99394.80;;;0.83;68.69
75188;BME280;63762;51.334;22.108;2024-01-15T18:09:54;99400.95;;;0.84;68.74
75188;BME280;63762;51.334;22.108;2024-01-15T18:20:02;99405.29;;;0.85;69.23
75188;BME280;63762;51.334;22.108;2024-01-15T18:30:09;99398.12;;;0.87;68.93
75188;BME280;63762;51.334;22.108;2024-01-15T18:40:15;99388.95;;;0.78;69.33
75188;BME280;63762;51.334;22.108;2024-01-15T18:50:22;99387.53;;;0.87;68.71
75188;BME280;63762;51.334;22.108;2024-01-15T19:00:30;99394.70;;;0.85;68.87
75188;BME280;63762;51.334;22.108;2024-01-15T19:10:37;99391.12;;;1.00;68.14
75188;BME280;63762;51.334;22.108;2024-01-15T19:20:44;99381.10;;;0.77;68.21
75188;BME280;63762;51.334;22.108;2024-01-15T19:30:51;99381.48;;;0.71;68.60
75188;BME280;63762;51.334;22.108;2024-01-15T19:40:58;99381.29;;;0.74;69.13
75188;BME280;63762;51.334;22.108;2024-01-15T19:51:05;99372.02;;;0.81;68.27
75188;BME280;63762;51.334;22.108;2024-01-15T20:01:13;99367.68;;;0.80;67.95
75188;BME280;63762;51.334;22.108;2024-01-15T20:11:20;99379.78;;;0.70;68.25
75188;BME280;63762;51.334;22.108;2024-01-15T20:21:27;99385.27;;;0.67;68.47
75188;BME280;63762;51.334;22.108;2024-01-15T20:31:34;99388.83;;;0.66;68.90
75188;BME280;63762;51.334;22.108;2024-01-15T20:41:41;99402.27;;;0.77;69.17
75188;BME280;63762;51.334;22.108;2024-01-15T20:51:48;99401.70;;;0.72;69.17
75188;BME280;63762;51.334;22.108;2024-01-15T21:01:56;99430.06;;;0.70;69.56
75188;BME280;63762;51.334;22.108;2024-01-15T21:12:03;99421.45;;;0.66;69.68
75188;BME280;63762;51.334;22.108;2024-01-15T21:22:10;99450.46;;;0.68;70.15
75188;BME280;63762;51.334;22.108;2024-01-15T21:32:17;99455.94;;;0.65;70.56
75188;BME280;63762;51.334;22.108;2024-01-15T21:42:24;99464.83;;;0.64;71.54
75188;BME280;63762;51.334;22.108;2024-01-15T21:52:31;99499.16;;;0.50;72.13
75188;BME280;63762;51.334;22.108;2024-01-15T22:02:39;99496.43;;;0.22;74.29
75188;BME280;63762;51.334;22.108;2024-01-15T22:12:45;99496.17;;;0.11;75.56
75188;BME280;63762;51.334;22.108;2024-01-15T22:22:52;99513.32;;;0.03;75.54
75188;BME280;63762;51.334;22.108;2024-01-15T22:33:00;99531.91;;;0.02;73.23
75188;BME280;63762;51.334;22.108;2024-01-15T22:43:07;99551.95;;;-0.10;69.75
75188;BME280;63762;51.334;22.108;2024-01-15T22:53:14;99549.73;;;-0.33;67.81
75188;BME280;63762;51.334;22.108;2024-01-15T23:03:21;99570.08;;;-0.35;66.93
75188;BME280;63762;51.334;22.108;2024-01-15T23:13:28;99595.38;;;-0.46;65.87
75188;BME280;63762;51.334;22.108;2024-01-15T23:23:35;99605.14;;;-0.81;65.54
75188;BME280;63762;51.334;22.108;2024-01-15T23:33:42;99600.95;;;-0.85;64.77
75188;BME280;63762;51.334;22.108;2024-01-15T23:43:50;99604.83;;;-1.09;64.50
75188;BME280;63762;51.334;22.108;2024-01-15T23:53:57;99625.94;;;-1.26;63.73
